Reynolds, North Dakota
Current Conditions -  °F | °C
As of 8:53 PM on Wednesday 22 Oct 2014 (Local Time) from KGFK Reporting Station
Overcast Overcast  
Wind Chill: 51°   Ceiling: 17000
Heat Index: 51°   Visibility: 10mi
Dew Point: 50°   Wind: 8mph
Humidity: 96%   Direction: 190°S
Pressure: 29.84"   Gusts: NA
Location:  47.67°N, 97.11°W
Report Text: KGFK 230153Z 19007KT 10SM SCT070 OVC170 11/10 A2984 RMK AO2 SLP108 T01060100
Loading
Personal Weather Stations






























Interactive Weather Map
Tropical Storm Tracking
New forecast layout! Learn more

10-Day Weather Forecast

Advertisements
Track Severe Weather on mobile